sensor_id;sensor_type;location;lat;lon;timestamp;P1;durP1;ratioP1;P2;durP2;ratioP2
1831;SDS011;1680;48.106;11.708;2024-03-02T00:00:51;6.87;;;6.20;;
1831;SDS011;1680;48.106;11.708;2024-03-02T00:03:18;7.23;;;6.53;;
1831;SDS011;1680;48.106;11.708;2024-03-02T00:05:48;7.80;;;7.00;;
1831;SDS011;1680;48.106;11.708;2024-03-02T00:08:16;10.13;;;7.10;;
1831;SDS011;1680;48.106;11.708;2024-03-02T00:10:49;7.17;;;6.47;;
1831;SDS011;1680;48.106;11.708;2024-03-02T00:13:16;6.87;;;6.17;;
1831;SDS011;1680;48.106;11.708;2024-03-02T00:15:48;6.37;;;5.77;;
1831;SDS011;1680;48.106;11.708;2024-03-02T00:18:17;7.17;;;6.47;;
1831;SDS011;1680;48.106;11.708;2024-03-02T00:20:45;7.00;;;6.30;;
1831;SDS011;1680;48.106;11.708;2024-03-02T00:23:14;6.87;;;6.27;;
1831;SDS011;1680;48.106;11.708;2024-03-02T00:25:43;6.77;;;6.07;;
1831;SDS011;1680;48.106;11.708;2024-03-02T00:28:12;7.93;;;6.63;;
1831;SDS011;1680;48.106;11.708;2024-03-02T00:30:46;6.93;;;6.33;;
1831;SDS011;1680;48.106;11.708;2024-03-02T00:33:18;6.93;;;6.27;;
1831;SDS011;1680;48.106;11.708;2024-03-02T00:35:45;6.67;;;6.00;;
1831;SDS011;1680;48.106;11.708;2024-03-02T00:38:12;7.23;;;6.23;;
1831;SDS011;1680;48.106;11.708;2024-03-02T00:40:40;8.00;;;6.60;;
1831;SDS011;1680;48.106;11.708;2024-03-02T00:43:09;6.50;;;5.90;;
1831;SDS011;1680;48.106;11.708;2024-03-02T00:45:43;6.57;;;5.97;;
1831;SDS011;1680;48.106;11.708;2024-03-02T00:48:10;6.47;;;5.80;;
1831;SDS011;1680;48.106;11.708;2024-03-02T00:50:37;7.57;;;6.87;;
1831;SDS011;1680;48.106;11.708;2024-03-02T00:53:04;7.07;;;6.37;;
1831;SDS011;1680;48.106;11.708;2024-03-02T00:55:31;7.00;;;6.40;;
1831;SDS011;1680;48.106;11.708;2024-03-02T00:58:02;7.73;;;7.03;;
1831;SDS011;1680;48.106;11.708;2024-03-02T01:00:29;7.17;;;6.57;;
1831;SDS011;1680;48.106;11.708;2024-03-02T01:02:58;7.97;;;7.20;;
1831;SDS011;1680;48.106;11.708;2024-03-02T01:05:25;7.40;;;6.60;;
1831;SDS011;1680;48.106;11.708;2024-03-02T01:07:53;7.13;;;6.43;;
1831;SDS011;1680;48.106;11.708;2024-03-02T01:10:20;8.20;;;7.40;;
1831;SDS011;1680;48.106;11.708;2024-03-02T01:12:47;7.20;;;6.60;;
1831;SDS011;1680;48.106;11.708;2024-03-02T01:15:14;7.83;;;6.73;;
1831;SDS011;1680;48.106;11.708;2024-03-02T01:17:41;6.77;;;6.07;;
1831;SDS011;1680;48.106;11.708;2024-03-02T01:20:10;7.80;;;7.10;;
1831;SDS011;1680;48.106;11.708;2024-03-02T01:22:37;7.13;;;6.53;;
1831;SDS011;1680;48.106;11.708;2024-03-02T01:25:05;8.37;;;7.57;;
1831;SDS011;1680;48.106;11.708;2024-03-02T01:27:32;7.17;;;6.57;;
1831;SDS011;1680;48.106;11.708;2024-03-02T01:29:59;7.10;;;6.50;;
1831;SDS011;1680;48.106;11.708;2024-03-02T01:32:26;8.90;;;7.10;;
1831;SDS011;1680;48.106;11.708;2024-03-02T01:34:53;7.53;;;6.80;;
1831;SDS011;1680;48.106;11.708;2024-03-02T01:37:22;7.53;;;6.83;;
1831;SDS011;1680;48.106;11.708;2024-03-02T01:39:49;7.43;;;6.83;;
1831;SDS011;1680;48.106;11.708;2024-03-02T01:42:17;6.90;;;6.30;;
1831;SDS011;1680;48.106;11.708;2024-03-02T01:44:44;7.03;;;6.43;;
1831;SDS011;1680;48.106;11.708;2024-03-02T01:47:11;7.60;;;6.83;;
1831;SDS011;1680;48.106;11.708;2024-03-02T01:49:38;7.27;;;6.50;;
1831;SDS011;1680;48.106;11.708;2024-03-02T01:52:06;7.50;;;6.57;;
1831;SDS011;1680;48.106;11.708;2024-03-02T01:54:34;7.40;;;6.70;;
1831;SDS011;1680;48.106;11.708;2024-03-02T01:57:01;7.70;;;7.00;;
1831;SDS011;1680;48.106;11.708;2024-03-02T01:59:28;7.63;;;6.83;;
1831;SDS011;1680;48.106;11.708;2024-03-02T02:01:56;7.53;;;6.90;;
1831;SDS011;1680;48.106;11.708;2024-03-02T02:04:22;7.47;;;6.77;;
1831;SDS011;1680;48.106;11.708;2024-03-02T02:06:52;7.57;;;6.87;;
1831;SDS011;1680;48.106;11.708;2024-03-02T02:09:19;7.40;;;6.80;;
1831;SDS011;1680;48.106;11.708;2024-03-02T02:11:48;7.20;;;6.57;;
1831;SDS011;1680;48.106;11.708;2024-03-02T02:14:16;7.63;;;6.93;;
1831;SDS011;1680;48.106;11.708;2024-03-02T02:16:43;7.57;;;6.87;;
1831;SDS011;1680;48.106;11.708;2024-03-02T02:19:11;7.50;;;6.60;;
1831;SDS011;1680;48.106;11.708;2024-03-02T02:21:39;7.13;;;6.43;;
1831;SDS011;1680;48.106;11.708;2024-03-02T02:24:08;7.10;;;6.37;;
1831;SDS011;1680;48.106;11.708;2024-03-02T02:26:35;7.20;;;6.60;;
1831;SDS011;1680;48.106;11.708;2024-03-02T02:29:02;7.60;;;6.90;;
1831;SDS011;1680;48.106;11.708;2024-03-02T02:31:36;7.13;;;6.43;;
1831;SDS011;1680;48.106;11.708;2024-03-02T02:34:03;7.20;;;6.60;;
1831;SDS011;1680;48.106;11.708;2024-03-02T02:36:30;7.10;;;6.50;;
1831;SDS011;1680;48.106;11.708;2024-03-02T02:39:00;7.77;;;7.07;;
1831;SDS011;1680;48.106;11.708;2024-03-02T02:41:30;7.10;;;6.50;;
1831;SDS011;1680;48.106;11.708;2024-03-02T02:43:59;7.00;;;6.40;;
1831;SDS011;1680;48.106;11.708;2024-03-02T02:46:27;7.40;;;6.70;;
1831;SDS011;1680;48.106;11.708;2024-03-02T02:48:54;7.77;;;7.07;;
1831;SDS011;1680;48.106;11.708;2024-03-02T02:51:20;6.77;;;6.17;;
1831;SDS011;1680;48.106;11.708;2024-03-02T02:53:49;7.60;;;7.00;;
1831;SDS011;1680;48.106;11.708;2024-03-02T02:56:17;7.63;;;6.93;;
1831;SDS011;1680;48.106;11.708;2024-03-02T02:58:44;8.20;;;7.40;;
1831;SDS011;1680;48.106;11.708;2024-03-02T03:01:11;7.97;;;7.27;;
1831;SDS011;1680;48.106;11.708;2024-03-02T03:03:38;7.70;;;7.00;;
1831;SDS011;1680;48.106;11.708;2024-03-02T03:06:06;8.00;;;7.30;;
1831;SDS011;1680;48.106;11.708;2024-03-02T03:08:33;8.33;;;7.53;;
1831;SDS011;1680;48.106;11.708;2024-03-02T03:10:59;8.40;;;7.60;;
1831;SDS011;1680;48.106;11.708;2024-03-02T03:13:28;7.87;;;7.13;;
1831;SDS011;1680;48.106;11.708;2024-03-02T03:15:55;8.60;;;7.80;;
1831;SDS011;1680;48.106;11.708;2024-03-02T03:18:22;8.70;;;7.83;;
1831;SDS011;1680;48.106;11.708;2024-03-02T03:20:49;9.27;;;8.37;;
1831;SDS011;1680;48.106;11.708;2024-03-02T03:23:16;8.87;;;7.67;;
1831;SDS011;1680;48.106;11.708;2024-03-02T03:25:43;9.30;;;8.40;;
1831;SDS011;1680;48.106;11.708;2024-03-02T03:28:10;8.93;;;8.00;;
1831;SDS011;1680;48.106;11.708;2024-03-02T03:30:39;8.93;;;8.03;;
1831;SDS011;1680;48.106;11.708;2024-03-02T03:33:06;9.17;;;8.27;;
1831;SDS011;1680;48.106;11.708;2024-03-02T03:35:33;8.67;;;7.87;;
1831;SDS011;1680;48.106;11.708;2024-03-02T03:38:01;8.40;;;7.60;;
1831;SDS011;1680;48.106;11.708;2024-03-02T03:40:28;9.17;;;8.27;;
1831;SDS011;1680;48.106;11.708;2024-03-02T03:42:56;9.40;;;8.57;;
1831;SDS011;1680;48.106;11.708;2024-03-02T03:45:26;10.50;;;8.60;;
1831;SDS011;1680;48.106;11.708;2024-03-02T03:47:54;9.97;;;9.03;;
1831;SDS011;1680;48.106;11.708;2024-03-02T03:50:21;9.80;;;8.80;;
1831;SDS011;1680;48.106;11.708;2024-03-02T03:52:48;9.00;;;8.20;;
1831;SDS011;1680;48.106;11.708;2024-03-02T03:55:15;9.37;;;8.50;;
1831;SDS011;1680;48.106;11.708;2024-03-02T03:57:42;11.07;;;9.23;;
1831;SDS011;1680;48.106;11.708;2024-03-02T04:00:09;9.37;;;8.30;;
1831;SDS011;1680;48.106;11.708;2024-03-02T04:02:37;8.83;;;7.97;;
1831;SDS011;1680;48.106;11.708;2024-03-02T04:05:06;9.33;;;8.43;;
1831;SDS011;1680;48.106;11.708;2024-03-02T04:07:36;8.93;;;8.13;;
1831;SDS011;1680;48.106;11.708;2024-03-02T04:10:09;8.37;;;7.57;;
1831;SDS011;1680;48.106;11.708;2024-03-02T04:12:37;9.40;;;7.77;;
1831;SDS011;1680;48.106;11.708;2024-03-02T04:15:05;8.33;;;7.53;;
1831;SDS011;1680;48.106;11.708;2024-03-02T04:17:32;8.50;;;7.70;;
1831;SDS011;1680;48.106;11.708;2024-03-02T04:20:01;9.00;;;8.20;;
1831;SDS011;1680;48.106;11.708;2024-03-02T04:22:32;8.80;;;7.90;;
1831;SDS011;1680;48.106;11.708;2024-03-02T04:24:59;9.07;;;8.17;;
1831;SDS011;1680;48.106;11.708;2024-03-02T04:27:26;7.40;;;6.80;;
1831;SDS011;1680;48.106;11.708;2024-03-02T04:29:52;9.00;;;8.20;;
1831;SDS011;1680;48.106;11.708;2024-03-02T04:32:19;8.20;;;7.40;;
1831;SDS011;1680;48.106;11.708;2024-03-02T04:34:46;7.60;;;6.80;;
1831;SDS011;1680;48.106;11.708;2024-03-02T04:37:13;8.73;;;7.50;;
1831;SDS011;1680;48.106;11.708;2024-03-02T04:39:42;8.73;;;7.40;;
1831;SDS011;1680;48.106;11.708;2024-03-02T04:42:09;8.50;;;7.70;;
1831;SDS011;1680;48.106;11.708;2024-03-02T04:44:35;8.40;;;7.60;;
1831;SDS011;1680;48.106;11.708;2024-03-02T04:47:03;8.63;;;7.80;;
1831;SDS011;1680;48.106;11.708;2024-03-02T04:49:30;8.50;;;7.60;;
1831;SDS011;1680;48.106;11.708;2024-03-02T04:51:57;9.00;;;8.10;;
1831;SDS011;1680;48.106;11.708;2024-03-02T04:54:24;10.50;;;9.50;;
1831;SDS011;1680;48.106;11.708;2024-03-02T04:56:53;9.90;;;8.90;;
1831;SDS011;1680;48.106;11.708;2024-03-02T04:59:20;11.00;;;10.00;;
1831;SDS011;1680;48.106;11.708;2024-03-02T05:01:47;10.73;;;9.63;;
1831;SDS011;1680;48.106;11.708;2024-03-02T05:04:13;10.17;;;9.10;;
1831;SDS011;1680;48.106;11.708;2024-03-02T05:06:40;9.80;;;8.90;;
1831;SDS011;1680;48.106;11.708;2024-03-02T05:09:08;9.43;;;8.53;;
1831;SDS011;1680;48.106;11.708;2024-03-02T05:11:35;9.87;;;8.87;;
1831;SDS011;1680;48.106;11.708;2024-03-02T05:14:38;10.10;;;9.03;;
1831;SDS011;1680;48.106;11.708;2024-03-02T05:17:05;8.63;;;7.83;;
1831;SDS011;1680;48.106;11.708;2024-03-02T05:19:32;9.20;;;8.40;;
1831;SDS011;1680;48.106;11.708;2024-03-02T05:21:59;8.80;;;8.00;;
1831;SDS011;1680;48.106;11.708;2024-03-02T05:24:28;9.67;;;8.67;;
1831;SDS011;1680;48.106;11.708;2024-03-02T05:26:55;9.37;;;8.47;;
1831;SDS011;1680;48.106;11.708;2024-03-02T05:29:22;10.10;;;8.10;;
1831;SDS011;1680;48.106;11.708;2024-03-02T05:31:50;8.53;;;7.73;;
1831;SDS011;1680;48.106;11.708;2024-03-02T05:34:17;9.90;;;8.90;;
1831;SDS011;1680;48.106;11.708;2024-03-02T05:36:44;8.90;;;8.00;;
1831;SDS011;1680;48.106;11.708;2024-03-02T05:39:11;10.33;;;9.33;;
1831;SDS011;1680;48.106;11.708;2024-03-02T05:41:39;9.67;;;8.77;;
1831;SDS011;1680;48.106;11.708;2024-03-02T05:44:06;9.80;;;8.60;;
1831;SDS011;1680;48.106;11.708;2024-03-02T05:46:33;8.50;;;7.60;;
1831;SDS011;1680;48.106;11.708;2024-03-02T05:49:01;9.10;;;8.20;;
1831;SDS011;1680;48.106;11.708;2024-03-02T05:51:28;9.00;;;7.77;;
1831;SDS011;1680;48.106;11.708;2024-03-02T05:53:56;9.40;;;8.50;;
1831;SDS011;1680;48.106;11.708;2024-03-02T05:56:25;8.80;;;7.90;;
1831;SDS011;1680;48.106;11.708;2024-03-02T05:58:52;8.67;;;7.87;;
1831;SDS011;1680;48.106;11.708;2024-03-02T06:01:32;8.73;;;7.93;;
1831;SDS011;1680;48.106;11.708;2024-03-02T06:03:59;8.63;;;7.83;;
1831;SDS011;1680;48.106;11.708;2024-03-02T06:06:27;9.23;;;8.33;;
1831;SDS011;1680;48.106;11.708;2024-03-02T06:08:54;8.93;;;8.03;;
1831;SDS011;1680;48.106;11.708;2024-03-02T06:11:21;8.70;;;7.90;;
1831;SDS011;1680;48.106;11.708;2024-03-02T06:13:48;9.20;;;8.30;;
1831;SDS011;1680;48.106;11.708;2024-03-02T06:16:15;7.80;;;7.00;;
1831;SDS011;1680;48.106;11.708;2024-03-02T06:18:42;9.40;;;8.50;;
1831;SDS011;1680;48.106;11.708;2024-03-02T06:21:09;9.77;;;8.87;;
1831;SDS011;1680;48.106;11.708;2024-03-02T06:23:37;8.80;;;8.00;;
1831;SDS011;1680;48.106;11.708;2024-03-02T06:26:04;9.10;;;8.20;;
1831;SDS011;1680;48.106;11.708;2024-03-02T06:28:31;8.47;;;7.67;;
1831;SDS011;1680;48.106;11.708;2024-03-02T06:30:58;9.47;;;8.47;;
1831;SDS011;1680;48.106;11.708;2024-03-02T06:33:26;8.43;;;7.67;;
1831;SDS011;1680;48.106;11.708;2024-03-02T06:35:53;8.97;;;8.10;;
1831;SDS011;1680;48.106;11.708;2024-03-02T06:38:20;10.10;;;8.60;;
1831;SDS011;1680;48.106;11.708;2024-03-02T06:40:48;8.63;;;7.83;;
1831;SDS011;1680;48.106;11.708;2024-03-02T06:43:15;9.60;;;8.70;;
1831;SDS011;1680;48.106;11.708;2024-03-02T06:45:42;9.33;;;8.47;;
1831;SDS011;1680;48.106;11.708;2024-03-02T06:48:09;9.90;;;9.00;;
1831;SDS011;1680;48.106;11.708;2024-03-02T06:50:36;9.43;;;8.53;;
1831;SDS011;1680;48.106;11.708;2024-03-02T06:53:03;9.27;;;8.37;;
1831;SDS011;1680;48.106;11.708;2024-03-02T06:55:30;9.27;;;8.37;;
1831;SDS011;1680;48.106;11.708;2024-03-02T06:57:59;8.83;;;8.03;;
1831;SDS011;1680;48.106;11.708;2024-03-02T07:00:26;9.40;;;8.40;;
1831;SDS011;1680;48.106;11.708;2024-03-02T07:02:54;8.40;;;7.53;;
1831;SDS011;1680;48.106;11.708;2024-03-02T07:05:21;9.13;;;8.23;;
1831;SDS011;1680;48.106;11.708;2024-03-02T07:07:48;9.50;;;8.50;;
1831;SDS011;1680;48.106;11.708;2024-03-02T07:10:15;8.90;;;8.00;;
1831;SDS011;1680;48.106;11.708;2024-03-02T07:12:42;9.93;;;8.30;;
1831;SDS011;1680;48.106;11.708;2024-03-02T07:15:11;9.87;;;8.97;;
1831;SDS011;1680;48.106;11.708;2024-03-02T07:17:54;10.77;;;9.40;;
1831;SDS011;1680;48.106;11.708;2024-03-02T07:20:21;10.50;;;9.20;;
1831;SDS011;1680;48.106;11.708;2024-03-02T07:22:47;13.17;;;10.27;;
1831;SDS011;1680;48.106;11.708;2024-03-02T07:25:14;10.00;;;9.00;;
1831;SDS011;1680;48.106;11.708;2024-03-02T07:27:41;9.63;;;8.63;;
1831;SDS011;1680;48.106;11.708;2024-03-02T07:30:13;10.27;;;8.80;;
1831;SDS011;1680;48.106;11.708;2024-03-02T07:32:41;9.90;;;8.70;;
1831;SDS011;1680;48.106;11.708;2024-03-02T07:35:10;10.20;;;9.20;;
1831;SDS011;1680;48.106;11.708;2024-03-02T07:37:37;10.10;;;9.00;;
1831;SDS011;1680;48.106;11.708;2024-03-02T07:40:05;9.23;;;8.33;;
1831;SDS011;1680;48.106;11.708;2024-03-02T07:42:36;10.20;;;9.20;;
1831;SDS011;1680;48.106;11.708;2024-03-02T07:45:03;10.20;;;9.27;;
1831;SDS011;1680;48.106;11.708;2024-03-02T07:47:31;11.03;;;9.77;;
1831;SDS011;1680;48.106;11.708;2024-03-02T07:49:58;9.53;;;8.60;;
1831;SDS011;1680;48.106;11.708;2024-03-02T07:52:25;10.50;;;9.40;;
1831;SDS011;1680;48.106;11.708;2024-03-02T07:54:52;10.70;;;9.60;;
1831;SDS011;1680;48.106;11.708;2024-03-02T07:57:20;10.93;;;9.80;;
1831;SDS011;1680;48.106;11.708;2024-03-02T07:59:47;11.07;;;9.97;;
1831;SDS011;1680;48.106;11.708;2024-03-02T08:02:14;12.77;;;10.80;;
1831;SDS011;1680;48.106;11.708;2024-03-02T08:04:43;11.60;;;10.47;;
1831;SDS011;1680;48.106;11.708;2024-03-02T08:07:11;11.70;;;10.60;;
1831;SDS011;1680;48.106;11.708;2024-03-02T08:09:37;12.20;;;10.13;;
1831;SDS011;1680;48.106;11.708;2024-03-02T08:12:04;10.50;;;9.50;;
1831;SDS011;1680;48.106;11.708;2024-03-02T08:14:31;12.57;;;11.00;;
1831;SDS011;1680;48.106;11.708;2024-03-02T08:16:59;12.87;;;11.07;;
1831;SDS011;1680;48.106;11.708;2024-03-02T08:19:26;12.07;;;9.87;;
1831;SDS011;1680;48.106;11.708;2024-03-02T08:21:55;13.10;;;11.80;;
1831;SDS011;1680;48.106;11.708;2024-03-02T08:24:22;13.53;;;12.13;;
1831;SDS011;1680;48.106;11.708;2024-03-02T08:26:49;14.07;;;10.70;;
1831;SDS011;1680;48.106;11.708;2024-03-02T08:29:16;14.07;;;11.83;;
1831;SDS011;1680;48.106;11.708;2024-03-02T08:31:43;13.83;;;12.37;;
1831;SDS011;1680;48.106;11.708;2024-03-02T08:34:10;13.30;;;11.93;;
1831;SDS011;1680;48.106;11.708;2024-03-02T08:36:37;12.37;;;11.07;;
1831;SDS011;1680;48.106;11.708;2024-03-02T08:39:07;11.70;;;9.83;;
1831;SDS011;1680;48.106;11.708;2024-03-02T08:41:40;10.90;;;9.13;;
1831;SDS011;1680;48.106;11.708;2024-03-02T08:44:07;10.60;;;9.50;;
1831;SDS011;1680;48.106;11.708;2024-03-02T08:46:34;9.07;;;7.63;;
1831;SDS011;1680;48.106;11.708;2024-03-02T08:49:00;8.10;;;7.30;;
1831;SDS011;1680;48.106;11.708;2024-03-02T08:51:28;9.13;;;7.63;;
1831;SDS011;1680;48.106;11.708;2024-03-02T08:53:55;11.50;;;8.60;;
1831;SDS011;1680;48.106;11.708;2024-03-02T08:56:25;11.17;;;9.10;;
1831;SDS011;1680;48.106;11.708;2024-03-02T08:58:52;11.70;;;8.60;;
1831;SDS011;1680;48.106;11.708;2024-03-02T09:01:19;10.93;;;9.37;;
1831;SDS011;1680;48.106;11.708;2024-03-02T09:03:46;10.50;;;9.00;;
1831;SDS011;1680;48.106;11.708;2024-03-02T09:06:14;10.57;;;9.33;;
1831;SDS011;1680;48.106;11.708;2024-03-02T09:08:42;15.30;;;11.37;;
1831;SDS011;1680;48.106;11.708;2024-03-02T09:11:09;13.57;;;10.97;;
1831;SDS011;1680;48.106;11.708;2024-03-02T09:13:38;12.23;;;10.90;;
1831;SDS011;1680;48.106;11.708;2024-03-02T09:16:06;13.57;;;12.17;;
1831;SDS011;1680;48.106;11.708;2024-03-02T09:18:35;15.37;;;12.70;;
1831;SDS011;1680;48.106;11.708;2024-03-02T09:21:03;13.83;;;12.33;;
1831;SDS011;1680;48.106;11.708;2024-03-02T09:23:30;14.93;;;13.10;;
1831;SDS011;1680;48.106;11.708;2024-03-02T09:25:57;14.20;;;12.00;;
1831;SDS011;1680;48.106;11.708;2024-03-02T09:28:24;14.63;;;11.40;;
1831;SDS011;1680;48.106;11.708;2024-03-02T09:30:52;15.70;;;11.40;;
1831;SDS011;1680;48.106;11.708;2024-03-02T09:33:19;11.90;;;10.00;;
1831;SDS011;1680;48.106;11.708;2024-03-02T09:35:46;13.87;;;11.50;;
1831;SDS011;1680;48.106;11.708;2024-03-02T09:38:13;13.43;;;11.10;;
1831;SDS011;1680;48.106;11.708;2024-03-02T09:40:41;15.03;;;11.20;;
1831;SDS011;1680;48.106;11.708;2024-03-02T09:43:08;14.93;;;11.23;;
1831;SDS011;1680;48.106;11.708;2024-03-02T09:45:35;13.60;;;10.70;;
1831;SDS011;1680;48.106;11.708;2024-03-02T09:48:07;14.37;;;12.00;;
1831;SDS011;1680;48.106;11.708;2024-03-02T09:50:34;15.67;;;11.30;;
1831;SDS011;1680;48.106;11.708;2024-03-02T09:53:02;13.10;;;10.60;;
1831;SDS011;1680;48.106;11.708;2024-03-02T09:55:30;11.43;;;10.23;;
1831;SDS011;1680;48.106;11.708;2024-03-02T09:57:56;15.57;;;11.13;;
1831;SDS011;1680;48.106;11.708;2024-03-02T10:00:24;13.43;;;11.03;;
1831;SDS011;1680;48.106;11.708;2024-03-02T10:02:51;14.47;;;11.97;;
1831;SDS011;1680;48.106;11.708;2024-03-02T10:05:27;16.37;;;12.23;;
1831;SDS011;1680;48.106;11.708;2024-03-02T10:08:02;13.83;;;11.03;;
1831;SDS011;1680;48.106;11.708;2024-03-02T10:10:35;16.50;;;11.70;;
1831;SDS011;1680;48.106;11.708;2024-03-02T10:13:05;13.30;;;10.70;;
1831;SDS011;1680;48.106;11.708;2024-03-02T10:15:32;14.03;;;11.20;;
1831;SDS011;1680;48.106;11.708;2024-03-02T10:17:59;16.73;;;10.93;;
1831;SDS011;1680;48.106;11.708;2024-03-02T10:20:28;15.33;;;11.20;;
1831;SDS011;1680;48.106;11.708;2024-03-02T10:22:55;14.40;;;11.13;;
1831;SDS011;1680;48.106;11.708;2024-03-02T10:25:28;14.20;;;10.87;;
1831;SDS011;1680;48.106;11.708;2024-03-02T10:27:57;16.03;;;11.57;;
1831;SDS011;1680;48.106;11.708;2024-03-02T10:30:24;15.97;;;10.27;;
1831;SDS011;1680;48.106;11.708;2024-03-02T10:32:52;15.90;;;10.27;;
1831;SDS011;1680;48.106;11.708;2024-03-02T10:35:19;11.27;;;9.20;;
1831;SDS011;1680;48.106;11.708;2024-03-02T10:37:48;10.27;;;8.20;;
1831;SDS011;1680;48.106;11.708;2024-03-02T10:40:16;8.77;;;7.90;;
1831;SDS011;1680;48.106;11.708;2024-03-02T10:42:43;11.40;;;7.87;;
1831;SDS011;1680;48.106;11.708;2024-03-02T10:45:11;11.67;;;8.00;;
1831;SDS011;1680;48.106;11.708;2024-03-02T10:47:38;9.23;;;8.20;;
1831;SDS011;1680;48.106;11.708;2024-03-02T10:50:06;13.90;;;9.57;;
1831;SDS011;1680;48.106;11.708;2024-03-02T10:52:36;11.00;;;9.23;;
1831;SDS011;1680;48.106;11.708;2024-03-02T10:55:06;10.50;;;9.00;;
1831;SDS011;1680;48.106;11.708;2024-03-02T10:57:37;11.17;;;8.47;;
1831;SDS011;1680;48.106;11.708;2024-03-02T11:00:07;8.73;;;7.80;;
1831;SDS011;1680;48.106;11.708;2024-03-02T11:02:40;7.93;;;6.43;;
1831;SDS011;1680;48.106;11.708;2024-03-02T11:05:07;10.23;;;7.30;;
1831;SDS011;1680;48.106;11.708;2024-03-02T11:07:37;8.20;;;7.00;;
1831;SDS011;1680;48.106;11.708;2024-03-02T11:10:07;9.93;;;7.53;;
1831;SDS011;1680;48.106;11.708;2024-03-02T11:12:35;11.30;;;8.83;;
1831;SDS011;1680;48.106;11.708;2024-03-02T11:15:03;12.23;;;9.10;;
1831;SDS011;1680;48.106;11.708;2024-03-02T11:17:32;9.07;;;7.40;;
1831;SDS011;1680;48.106;11.708;2024-03-02T11:19:59;7.90;;;6.40;;
1831;SDS011;1680;48.106;11.708;2024-03-02T11:22:26;11.37;;;8.90;;
1831;SDS011;1680;48.106;11.708;2024-03-02T11:24:53;12.83;;;10.33;;
1831;SDS011;1680;48.106;11.708;2024-03-02T11:30:09;12.53;;;9.90;;
1831;SDS011;1680;48.106;11.708;2024-03-02T11:32:36;13.33;;;10.30;;
1831;SDS011;1680;48.106;11.708;2024-03-02T11:35:03;13.40;;;11.40;;
1831;SDS011;1680;48.106;11.708;2024-03-02T11:37:30;11.43;;;10.23;;
1831;SDS011;1680;48.106;11.708;2024-03-02T11:39:57;12.50;;;10.40;;
1831;SDS011;1680;48.106;11.708;2024-03-02T11:42:26;10.33;;;8.20;;
1831;SDS011;1680;48.106;11.708;2024-03-02T11:44:53;10.20;;;8.80;;
1831;SDS011;1680;48.106;11.708;2024-03-02T11:47:24;16.17;;;11.80;;
1831;SDS011;1680;48.106;11.708;2024-03-02T11:49:58;14.70;;;11.70;;
1831;SDS011;1680;48.106;11.708;2024-03-02T11:52:25;11.77;;;8.50;;
1831;SDS011;1680;48.106;11.708;2024-03-02T11:54:52;11.30;;;9.53;;
1831;SDS011;1680;48.106;11.708;2024-03-02T11:57:21;13.03;;;10.20;;
1831;SDS011;1680;48.106;11.708;2024-03-02T11:59:48;11.53;;;8.80;;
1831;SDS011;1680;48.106;11.708;2024-03-02T12:02:16;12.07;;;8.30;;
1831;SDS011;1680;48.106;11.708;2024-03-02T12:04:45;8.90;;;7.63;;
1831;SDS011;1680;48.106;11.708;2024-03-02T12:07:17;11.10;;;7.90;;
1831;SDS011;1680;48.106;11.708;2024-03-02T12:09:44;11.50;;;8.73;;
1831;SDS011;1680;48.106;11.708;2024-03-02T12:12:12;8.07;;;6.10;;
1831;SDS011;1680;48.106;11.708;2024-03-02T12:14:49;6.60;;;5.90;;
1831;SDS011;1680;48.106;11.708;2024-03-02T12:17:16;8.63;;;6.27;;
1831;SDS011;1680;48.106;11.708;2024-03-02T12:19:45;6.77;;;6.10;;
1831;SDS011;1680;48.106;11.708;2024-03-02T12:22:12;6.90;;;6.20;;
1831;SDS011;1680;48.106;11.708;2024-03-02T12:24:40;7.77;;;5.80;;
1831;SDS011;1680;48.106;11.708;2024-03-02T12:27:10;6.70;;;5.63;;
1831;SDS011;1680;48.106;11.708;2024-03-02T12:29:37;8.63;;;7.43;;
1831;SDS011;1680;48.106;11.708;2024-03-02T12:32:05;11.50;;;8.20;;
1831;SDS011;1680;48.106;11.708;2024-03-02T12:34:33;9.07;;;7.93;;
1831;SDS011;1680;48.106;11.708;2024-03-02T12:37:01;8.87;;;6.93;;
1831;SDS011;1680;48.106;11.708;2024-03-02T12:39:28;7.40;;;5.07;;
1831;SDS011;1680;48.106;11.708;2024-03-02T12:41:57;6.10;;;5.50;;
1831;SDS011;1680;48.106;11.708;2024-03-02T12:44:25;7.00;;;5.53;;
1831;SDS011;1680;48.106;11.708;2024-03-02T12:46:53;7.07;;;5.37;;
1831;SDS011;1680;48.106;11.708;2024-03-02T12:49:21;7.50;;;5.40;;
1831;SDS011;1680;48.106;11.708;2024-03-02T12:51:49;4.90;;;4.47;;
1831;SDS011;1680;48.106;11.708;2024-03-02T12:54:21;6.73;;;4.13;;
1831;SDS011;1680;48.106;11.708;2024-03-02T12:56:50;8.77;;;5.60;;
1831;SDS011;1680;48.106;11.708;2024-03-02T12:59:23;7.20;;;5.40;;
1831;SDS011;1680;48.106;11.708;2024-03-02T13:01:51;6.17;;;5.50;;
1831;SDS011;1680;48.106;11.708;2024-03-02T13:04:21;6.00;;;5.07;;
1831;SDS011;1680;48.106;11.708;2024-03-02T13:06:49;8.43;;;5.33;;
1831;SDS011;1680;48.106;11.708;2024-03-02T13:09:16;8.03;;;6.40;;
1831;SDS011;1680;48.106;11.708;2024-03-02T13:11:44;8.40;;;6.40;;
1831;SDS011;1680;48.106;11.708;2024-03-02T13:14:12;9.43;;;6.20;;
1831;SDS011;1680;48.106;11.708;2024-03-02T13:16:38;7.77;;;6.13;;
1831;SDS011;1680;48.106;11.708;2024-03-02T13:19:07;6.37;;;5.10;;
1831;SDS011;1680;48.106;11.708;2024-03-02T13:21:34;9.60;;;6.53;;
1831;SDS011;1680;48.106;11.708;2024-03-02T13:24:04;14.33;;;10.90;;
1831;SDS011;1680;48.106;11.708;2024-03-02T13:26:31;13.60;;;12.20;;
1831;SDS011;1680;48.106;11.708;2024-03-02T13:29:00;11.77;;;9.20;;
1831;SDS011;1680;48.106;11.708;2024-03-02T13:31:26;8.27;;;6.87;;
1831;SDS011;1680;48.106;11.708;2024-03-02T13:33:53;8.07;;;6.73;;
1831;SDS011;1680;48.106;11.708;2024-03-02T13:36:21;7.90;;;6.70;;
1831;SDS011;1680;48.106;11.708;2024-03-02T13:38:49;8.30;;;6.53;;
1831;SDS011;1680;48.106;11.708;2024-03-02T13:41:16;9.50;;;6.20;;
1831;SDS011;1680;48.106;11.708;2024-03-02T13:43:44;10.17;;;6.63;;
1831;SDS011;1680;48.106;11.708;2024-03-02T13:46:13;7.97;;;6.40;;
1831;SDS011;1680;48.106;11.708;2024-03-02T13:48:40;8.13;;;6.90;;
1831;SDS011;1680;48.106;11.708;2024-03-02T13:51:07;9.00;;;7.40;;
1831;SDS011;1680;48.106;11.708;2024-03-02T13:53:34;13.20;;;7.00;;
1831;SDS011;1680;48.106;11.708;2024-03-02T13:56:02;8.87;;;6.40;;
1831;SDS011;1680;48.106;11.708;2024-03-02T13:58:29;8.07;;;6.53;;
1831;SDS011;1680;48.106;11.708;2024-03-02T14:00:57;8.00;;;6.60;;
1831;SDS011;1680;48.106;11.708;2024-03-02T14:03:25;9.43;;;6.37;;
1831;SDS011;1680;48.106;11.708;2024-03-02T14:05:52;7.97;;;6.90;;
1831;SDS011;1680;48.106;11.708;2024-03-02T14:08:20;8.70;;;6.50;;
1831;SDS011;1680;48.106;11.708;2024-03-02T14:10:48;6.60;;;5.50;;
1831;SDS011;1680;48.106;11.708;2024-03-02T14:13:15;7.93;;;6.77;;
1831;SDS011;1680;48.106;11.708;2024-03-02T14:15:42;11.20;;;8.40;;
1831;SDS011;1680;48.106;11.708;2024-03-02T14:18:09;9.20;;;7.80;;
1831;SDS011;1680;48.106;11.708;2024-03-02T14:20:37;8.07;;;6.80;;
1831;SDS011;1680;48.106;11.708;2024-03-02T14:23:04;7.80;;;5.93;;
1831;SDS011;1680;48.106;11.708;2024-03-02T14:25:31;7.43;;;5.80;;
1831;SDS011;1680;48.106;11.708;2024-03-02T14:27:59;7.50;;;6.40;;
1831;SDS011;1680;48.106;11.708;2024-03-02T14:30:27;6.40;;;5.40;;
1831;SDS011;1680;48.106;11.708;2024-03-02T14:32:54;7.30;;;5.30;;
1831;SDS011;1680;48.106;11.708;2024-03-02T14:35:22;7.20;;;5.83;;
1831;SDS011;1680;48.106;11.708;2024-03-02T14:37:50;6.67;;;5.60;;
1831;SDS011;1680;48.106;11.708;2024-03-02T14:40:18;7.97;;;5.70;;
1831;SDS011;1680;48.106;11.708;2024-03-02T14:42:46;6.27;;;4.87;;
1831;SDS011;1680;48.106;11.708;2024-03-02T14:45:13;5.97;;;5.00;;
1831;SDS011;1680;48.106;11.708;2024-03-02T14:47:40;7.00;;;5.70;;
1831;SDS011;1680;48.106;11.708;2024-03-02T14:50:09;6.33;;;5.10;;
1831;SDS011;1680;48.106;11.708;2024-03-02T14:52:36;7.20;;;5.80;;
1831;SDS011;1680;48.106;11.708;2024-03-02T14:55:06;7.30;;;5.43;;
1831;SDS011;1680;48.106;11.708;2024-03-02T14:57:35;7.73;;;5.90;;
1831;SDS011;1680;48.106;11.708;2024-03-02T15:00:02;8.10;;;5.90;;
1831;SDS011;1680;48.106;11.708;2024-03-02T15:02:33;7.80;;;5.93;;